createdAt,value
2023-05-04T00:01:30.556Z,1.00
2023-05-04T00:03:57.503Z,1.00
2023-05-04T00:06:24.369Z,1.00
2023-05-04T00:08:51.160Z,1.00
2023-05-04T00:11:17.981Z,1.00
2023-05-04T00:13:44.814Z,1.00
2023-05-04T00:16:11.622Z,1.00
2023-05-04T00:18:39.170Z,1.00
2023-05-04T00:21:06.362Z,1.00
2023-05-04T00:23:33.124Z,1.00
2023-05-04T00:26:00.122Z,1.00
2023-05-04T00:28:26.884Z,1.00
2023-05-04T00:30:54.129Z,1.00
2023-05-04T00:33:21.560Z,1.00
2023-05-04T00:35:48.464Z,1.00
2023-05-04T00:38:16.794Z,1.00
2023-05-04T00:40:43.710Z,1.00
2023-05-04T00:43:10.455Z,1.00
2023-05-04T00:45:37.688Z,1.00
2023-05-04T00:48:05.347Z,1.00
2023-05-04T00:50:32.168Z,1.00
2023-05-04T00:53:00.194Z,1.00
2023-05-04T00:55:27.336Z,1.00
2023-05-04T00:57:54.163Z,1.00
2023-05-04T01:00:20.983Z,1.00
2023-05-04T01:02:47.726Z,1.00
2023-05-04T01:05:14.594Z,1.00
2023-05-04T01:08:07.625Z,1.00
2023-05-04T01:10:47.453Z,1.00
2023-05-04T01:13:16.423Z,1.00
2023-05-04T01:15:43.383Z,1.00
2023-05-04T01:18:10.258Z,1.00
2023-05-04T01:20:37.102Z,1.00
2023-05-04T01:23:04.052Z,1.00
2023-05-04T01:25:33.745Z,1.00
2023-05-04T01:28:21.512Z,1.00
2023-05-04T01:30:51.054Z,1.00
2023-05-04T01:33:18.453Z,1.00
2023-05-04T01:35:45.700Z,1.00
2023-05-04T01:38:12.592Z,1.00
2023-05-04T01:40:39.335Z,1.00
2023-05-04T01:43:06.082Z,1.00
2023-05-04T01:45:32.796Z,1.00
2023-05-04T01:47:59.584Z,1.00
2023-05-04T01:50:26.374Z,1.00
2023-05-04T01:52:53.117Z,1.00
2023-05-04T01:55:19.864Z,1.00
2023-05-04T01:57:46.611Z,1.00
2023-05-04T02:00:16.451Z,1.00
2023-05-04T02:02:43.686Z,1.00
2023-05-04T02:05:10.513Z,1.00
2023-05-04T02:07:37.800Z,1.00
2023-05-04T02:10:05.118Z,1.00
2023-05-04T02:12:32.178Z,1.00
2023-05-04T02:14:58.928Z,1.00
2023-05-04T02:17:25.741Z,1.00
2023-05-04T02:19:52.528Z,1.00
2023-05-04T02:22:19.254Z,1.00
2023-05-04T02:24:46.045Z,1.00
2023-05-04T02:27:12.829Z,1.00
2023-05-04T02:29:39.556Z,1.00
2023-05-04T02:32:06.326Z,1.00
2023-05-04T02:34:35.258Z,1.00
2023-05-04T02:37:02.034Z,1.00
2023-05-04T02:39:28.761Z,1.00
2023-05-04T02:41:55.594Z,1.00
2023-05-04T02:44:22.359Z,1.00
2023-05-04T02:46:49.200Z,1.00
2023-05-04T02:49:16.044Z,1.00
2023-05-04T02:51:43.216Z,1.00
2023-05-04T02:54:09.938Z,1.00
2023-05-04T02:56:36.678Z,1.00
2023-05-04T02:59:03.422Z,1.00
2023-05-04T03:01:31.192Z,1.00
2023-05-04T03:03:59.604Z,1.00
2023-05-04T03:06:26.739Z,1.00
2023-05-04T03:08:53.466Z,1.00
2023-05-04T03:11:20.268Z,1.00
2023-05-04T03:13:46.995Z,1.00
2023-05-04T03:16:13.886Z,1.00
2023-05-04T03:21:24.869Z,1.00
2023-05-04T03:23:51.649Z,1.00
2023-05-04T03:26:18.484Z,1.00
2023-05-04T03:28:45.252Z,1.00
2023-05-04T03:31:12.003Z,1.00
2023-05-04T03:33:38.766Z,1.00
2023-05-04T03:36:05.685Z,1.00
2023-05-04T03:38:32.860Z,1.00
2023-05-04T03:40:59.556Z,1.00
2023-05-04T03:43:26.356Z,1.00
2023-05-04T03:45:53.131Z,1.00
2023-05-04T03:48:19.921Z,1.00
2023-05-04T03:50:46.704Z,1.00
2023-05-04T03:53:13.483Z,1.00
2023-05-04T03:55:40.270Z,1.00
2023-05-04T03:58:07.043Z,1.00
2023-05-04T04:00:33.849Z,1.00
2023-05-04T04:03:00.781Z,1.00
2023-05-04T04:05:27.649Z,1.00
2023-05-04T04:07:54.468Z,1.00
2023-05-04T04:10:21.229Z,1.00
2023-05-04T04:12:48.007Z,1.00
2023-05-04T04:15:14.804Z,1.00
2023-05-04T04:17:41.590Z,1.00
2023-05-04T04:20:09.048Z,1.00
2023-05-04T04:22:36.153Z,1.00
2023-05-04T04:25:03.410Z,1.00
2023-05-04T04:27:30.178Z,1.00
2023-05-04T04:29:57.626Z,1.00
2023-05-04T04:32:24.504Z,1.00
2023-05-04T04:34:51.502Z,1.00
2023-05-04T04:37:18.414Z,1.00
2023-05-04T04:39:45.217Z,1.00
2023-05-04T04:42:12.349Z,1.00
2023-05-04T04:44:39.389Z,1.00
2023-05-04T04:47:06.681Z,1.00
2023-05-04T04:49:33.525Z,1.00
2023-05-04T04:52:01.741Z,1.00
2023-05-04T04:54:29.060Z,1.00
2023-05-04T04:56:55.804Z,1.00
2023-05-04T04:59:24.895Z,1.00
2023-05-04T05:01:51.728Z,1.00
2023-05-04T05:04:22.764Z,1.00
2023-05-04T05:06:49.873Z,1.00
2023-05-04T05:09:16.829Z,1.00
2023-05-04T05:11:43.718Z,1.00
2023-05-04T05:14:10.679Z,1.00
2023-05-04T05:16:37.513Z,1.00
2023-05-04T05:19:04.295Z,1.00
2023-05-04T05:21:31.061Z,1.00
2023-05-04T05:23:57.823Z,1.00
2023-05-04T05:26:24.879Z,1.00
2023-05-04T05:28:51.609Z,1.00
2023-05-04T05:31:18.485Z,1.00
2023-05-04T05:33:45.637Z,1.00
2023-05-04T05:36:12.696Z,1.00
2023-05-04T05:38:39.420Z,1.00
2023-05-04T05:41:06.212Z,1.00
2023-05-04T05:43:33.488Z,1.00
2023-05-04T05:46:00.240Z,1.00
2023-05-04T05:48:27.089Z,1.00
2023-05-04T05:50:53.900Z,8.90
2023-05-04T05:53:20.708Z,1.00
2023-05-04T05:55:47.523Z,2.90
2023-05-04T05:58:14.283Z,11.50
2023-05-04T06:00:41.063Z,5.60
2023-05-04T06:03:07.944Z,20.20
2023-05-04T06:05:34.846Z,10.00
2023-05-04T06:08:01.614Z,12.90
2023-05-04T06:10:28.360Z,10.90
2023-05-04T06:12:55.125Z,16.40
2023-05-04T06:15:24.315Z,11.70
2023-05-04T06:17:51.119Z,14.60
2023-05-04T06:20:18.406Z,14.20
2023-05-04T06:22:45.253Z,14.00
2023-05-04T06:25:12.450Z,15.30
2023-05-04T06:27:39.406Z,10.60
2023-05-04T06:30:07.488Z,18.00
2023-05-04T06:32:35.150Z,12.50
2023-05-04T06:35:02.782Z,16.90
2023-05-04T06:37:29.831Z,13.00
2023-05-04T06:39:57.284Z,10.50
2023-05-04T06:42:24.057Z,10.60
2023-05-04T06:44:51.434Z,11.60
2023-05-04T06:47:18.179Z,14.90
2023-05-04T06:49:44.922Z,10.50
2023-05-04T06:52:11.786Z,12.70
2023-05-04T06:54:40.192Z,25.20
2023-05-04T06:57:07.354Z,17.20
2023-05-04T06:59:34.221Z,17.20
2023-05-04T07:02:01.066Z,17.70
2023-05-04T07:04:27.964Z,15.70
2023-05-04T07:06:55.089Z,12.40
2023-05-04T07:09:22.287Z,17.20
2023-05-04T07:11:49.282Z,15.80
2023-05-04T07:14:16.512Z,8.20
2023-05-04T07:16:43.562Z,8.70
2023-05-04T07:19:10.576Z,1.60
2023-05-04T07:21:37.659Z,6.30
2023-05-04T07:24:05.288Z,1.00
2023-05-04T07:26:32.116Z,2.70
2023-05-04T07:28:58.919Z,1.00
2023-05-04T07:31:26.606Z,5.30
2023-05-04T07:33:54.424Z,1.80
2023-05-04T07:36:21.165Z,1.80
2023-05-04T07:38:47.894Z,1.00
2023-05-04T07:41:14.660Z,1.00
2023-05-04T07:43:41.756Z,1.00
2023-05-04T07:46:08.594Z,1.00
2023-05-04T07:48:35.513Z,1.00
2023-05-04T07:51:02.245Z,1.00
2023-05-04T07:53:29.055Z,1.00
2023-05-04T07:55:57.579Z,1.00
2023-05-04T07:58:24.378Z,1.00
2023-05-04T08:00:51.192Z,1.00
2023-05-04T08:03:18.034Z,1.00
2023-05-04T08:05:44.878Z,1.00
2023-05-04T08:08:11.600Z,1.00
2023-05-04T08:10:38.732Z,1.00
2023-05-04T08:13:05.728Z,1.00
2023-05-04T08:15:32.596Z,1.00
2023-05-04T08:17:59.501Z,1.00
2023-05-04T08:20:26.347Z,1.00
2023-05-04T08:22:53.459Z,1.00
2023-05-04T08:25:21.662Z,1.00
2023-05-04T08:27:48.804Z,1.00
2023-05-04T08:30:16.892Z,1.00
2023-05-04T08:32:43.800Z,1.00
2023-05-04T08:35:10.664Z,1.00
2023-05-04T08:37:37.502Z,1.00
2023-05-04T08:40:05.658Z,1.00
2023-05-04T08:42:33.314Z,1.00
2023-05-04T08:45:01.016Z,1.00
2023-05-04T08:47:31.783Z,1.00
2023-05-04T08:49:58.827Z,1.00
2023-05-04T08:52:26.402Z,1.00
2023-05-04T08:54:55.760Z,1.00
2023-05-04T08:57:26.116Z,1.00
2023-05-04T08:59:54.896Z,1.00
2023-05-04T09:02:23.637Z,1.00
2023-05-04T09:04:53.960Z,1.00
2023-05-04T09:07:21.897Z,1.00
2023-05-04T09:09:50.925Z,1.00
2023-05-04T09:12:18.167Z,1.00
2023-05-04T09:14:46.612Z,1.00
2023-05-04T09:17:16.425Z,1.00
2023-05-04T09:19:44.223Z,1.00
2023-05-04T09:22:15.511Z,1.00
2023-05-04T09:24:42.285Z,1.00
2023-05-04T09:27:10.483Z,1.00
2023-05-04T09:29:40.762Z,1.00
2023-05-04T09:32:10.724Z,1.00
2023-05-04T09:34:46.288Z,1.00
2023-05-04T09:37:13.545Z,1.00
2023-05-04T09:39:58.420Z,1.00
2023-05-04T09:42:26.666Z,1.00
2023-05-04T09:45:09.689Z,1.00
2023-05-04T09:47:39.920Z,1.00
2023-05-04T09:50:19.864Z,1.00
2023-05-04T09:52:48.063Z,1.00
2023-05-04T09:55:17.709Z,1.00
2023-05-04T09:57:45.804Z,1.00
2023-05-04T10:00:15.647Z,1.00
2023-05-04T10:02:44.039Z,1.00
2023-05-04T10:05:14.882Z,1.00
2023-05-04T10:07:42.819Z,1.00
2023-05-04T10:10:11.730Z,1.00
2023-05-04T10:12:38.502Z,1.00
2023-05-04T10:15:09.384Z,1.00
2023-05-04T10:17:57.722Z,1.00
2023-05-04T10:20:33.586Z,1.00
2023-05-04T10:23:19.056Z,1.00
2023-05-04T10:25:45.850Z,1.00
2023-05-04T10:28:29.344Z,1.00
2023-05-04T10:30:58.384Z,1.00
2023-05-04T10:33:26.272Z,1.00
2023-05-04T10:35:54.072Z,1.00
2023-05-04T10:38:32.208Z,1.00
2023-05-04T10:40:58.952Z,1.00
2023-05-04T10:43:26.374Z,1.00
2023-05-04T10:45:53.217Z,1.00
2023-05-04T10:48:20.034Z,1.00
2023-05-04T10:50:49.301Z,1.00
2023-05-04T10:53:17.673Z,1.00
2023-05-04T10:55:46.151Z,1.00
2023-05-04T10:58:16.521Z,1.00
2023-05-04T11:00:46.692Z,1.00
2023-05-04T11:03:14.231Z,1.00
2023-05-04T11:05:54.404Z,1.00
2023-05-04T11:08:24.258Z,1.00
2023-05-04T11:11:02.599Z,1.00
2023-05-04T11:13:31.896Z,1.00
2023-05-04T11:15:58.778Z,1.00
2023-05-04T11:18:34.047Z,1.00
2023-05-04T11:21:01.310Z,1.00
2023-05-04T11:23:28.350Z,1.00
2023-05-04T11:25:55.152Z,1.00
2023-05-04T11:28:38.042Z,1.00
2023-05-04T11:31:14.329Z,1.00
2023-05-04T11:33:54.731Z,1.00
2023-05-04T11:36:22.507Z,1.00
2023-05-04T11:38:49.856Z,1.00
2023-05-04T11:41:16.706Z,1.00
2023-05-04T11:43:45.116Z,1.00
2023-05-04T11:46:12.787Z,1.00
2023-05-04T11:48:39.873Z,1.00
2023-05-04T11:51:06.783Z,1.00
2023-05-04T11:53:38.546Z,1.00
2023-05-04T11:56:06.655Z,1.00
2023-05-04T11:58:33.580Z,1.00
2023-05-04T12:01:00.580Z,1.00
2023-05-04T12:03:39.673Z,1.00
2023-05-04T12:06:15.272Z,1.00
2023-05-04T12:08:42.353Z,1.00
2023-05-04T12:11:26.151Z,1.00
2023-05-04T12:14:11.082Z,1.00
2023-05-04T12:16:38.680Z,1.00
2023-05-04T12:19:07.578Z,1.00
2023-05-04T12:21:35.259Z,1.00
2023-05-04T12:24:03.306Z,1.00
2023-05-04T12:26:30.347Z,1.00
2023-05-04T12:28:57.312Z,1.00
2023-05-04T12:31:25.508Z,1.00
2023-05-04T12:33:52.806Z,1.00
2023-05-04T12:36:19.671Z,1.00
2023-05-04T12:38:46.628Z,1.00
2023-05-04T12:41:13.807Z,1.00
2023-05-04T12:43:40.780Z,1.00
2023-05-04T12:46:07.683Z,1.00
2023-05-04T12:48:34.756Z,1.00
2023-05-04T12:51:03.868Z,1.00
2023-05-04T12:53:32.289Z,1.00
2023-05-04T12:56:00.186Z,1.00
2023-05-04T12:58:27.601Z,1.00
2023-05-04T13:00:55.316Z,1.00
2023-05-04T13:03:22.721Z,1.00
2023-05-04T13:05:49.939Z,1.00
2023-05-04T13:08:17.404Z,1.00
2023-05-04T13:10:46.209Z,1.00
2023-05-04T13:13:15.483Z,1.00
2023-05-04T13:15:43.205Z,1.00
2023-05-04T13:18:10.160Z,1.00
2023-05-04T13:20:38.810Z,1.00
2023-05-04T13:23:05.551Z,1.00
2023-05-04T13:25:32.487Z,1.00
2023-05-04T13:27:59.292Z,1.00
2023-05-04T13:30:26.126Z,1.00
2023-05-04T13:32:52.987Z,1.00
2023-05-04T13:35:20.076Z,1.00
2023-05-04T13:37:47.009Z,1.00
2023-05-04T13:40:14.200Z,1.00
2023-05-04T13:42:40.989Z,1.00
2023-05-04T13:45:08.640Z,1.00
2023-05-04T13:47:37.164Z,1.00
2023-05-04T13:50:04.404Z,1.00
2023-05-04T13:52:32.054Z,1.00
2023-05-04T13:54:59.465Z,1.00
2023-05-04T13:57:29.040Z,1.00
2023-05-04T14:00:06.341Z,1.00
2023-05-04T14:02:34.000Z,1.00
2023-05-04T14:05:01.447Z,1.00
2023-05-04T14:07:28.320Z,1.00
2023-05-04T14:09:56.024Z,1.00
2023-05-04T14:12:22.874Z,1.00
2023-05-04T14:14:50.823Z,1.00
2023-05-04T14:17:18.275Z,1.00
2023-05-04T14:19:45.763Z,1.00
2023-05-04T14:22:12.622Z,1.00
2023-05-04T14:24:39.463Z,1.00
2023-05-04T14:27:06.183Z,1.00
2023-05-04T14:29:34.295Z,1.00
2023-05-04T14:32:01.154Z,1.00
2023-05-04T14:34:30.719Z,1.00
2023-05-04T14:36:57.706Z,1.00
2023-05-04T14:39:24.935Z,1.00
2023-05-04T14:41:53.178Z,1.00
2023-05-04T14:44:20.637Z,1.00
2023-05-04T14:46:47.467Z,1.00
2023-05-04T14:49:21.496Z,1.00
2023-05-04T14:51:51.605Z,1.00
2023-05-04T14:54:18.361Z,1.00
2023-05-04T14:56:45.111Z,1.00
2023-05-04T14:59:12.472Z,1.00
2023-05-04T15:01:39.353Z,1.00
2023-05-04T15:04:06.328Z,1.00
2023-05-04T15:06:33.964Z,1.00
2023-05-04T15:09:00.802Z,1.00
2023-05-04T15:11:27.628Z,1.00
2023-05-04T15:13:57.992Z,1.00
2023-05-04T15:16:29.800Z,1.00
2023-05-04T15:18:56.746Z,1.00
2023-05-04T15:21:23.511Z,1.00
2023-05-04T15:23:50.378Z,1.00
2023-05-04T15:26:17.232Z,1.00
2023-05-04T15:28:44.155Z,1.00
2023-05-04T15:31:11.049Z,1.00
2023-05-04T15:33:38.118Z,1.00
2023-05-04T15:36:08.815Z,1.00
2023-05-04T15:38:36.555Z,1.00
2023-05-04T15:41:05.537Z,1.00
2023-05-04T15:43:33.617Z,1.00
2023-05-04T15:46:00.602Z,1.00
2023-05-04T15:48:27.963Z,1.00
2023-05-04T15:50:55.019Z,1.00
2023-05-04T15:53:21.967Z,1.00
2023-05-04T15:55:50.680Z,1.00
2023-05-04T15:58:17.419Z,1.00
2023-05-04T16:00:44.202Z,1.00
2023-05-04T16:03:11.412Z,1.00
2023-05-04T16:05:38.258Z,1.00
2023-05-04T16:08:05.036Z,1.00
2023-05-04T16:10:31.896Z,1.00
2023-05-04T16:13:03.973Z,1.00
2023-05-04T16:15:31.153Z,1.00
2023-05-04T16:17:58.052Z,1.00
2023-05-04T16:20:25.707Z,1.00
2023-05-04T16:22:52.493Z,1.00
2023-05-04T16:25:19.307Z,1.00
2023-05-04T16:27:46.289Z,1.00
2023-05-04T16:30:15.386Z,1.00
2023-05-04T16:32:42.176Z,1.00
2023-05-04T16:35:09.347Z,1.00
2023-05-04T16:37:37.440Z,1.00
2023-05-04T16:40:14.489Z,1.00
2023-05-04T16:42:42.609Z,1.00
2023-05-04T16:45:11.778Z,1.00
2023-05-04T16:47:38.637Z,1.00
2023-05-04T16:50:06.608Z,1.00
2023-05-04T16:52:33.675Z,1.00
2023-05-04T16:55:00.459Z,1.00
2023-05-04T16:57:27.481Z,1.00
2023-05-04T16:59:54.946Z,1.00
2023-05-04T17:02:22.016Z,1.00
2023-05-04T17:04:48.791Z,1.00
2023-05-04T17:07:15.639Z,1.00
2023-05-04T17:09:42.445Z,1.00
2023-05-04T17:12:09.167Z,1.00
2023-05-04T17:14:35.959Z,1.00
2023-05-04T17:17:02.826Z,1.00
2023-05-04T17:19:29.552Z,1.00
2023-05-04T17:21:56.461Z,1.00
2023-05-04T17:24:23.208Z,1.00
2023-05-04T17:26:49.969Z,1.00
2023-05-04T17:29:16.743Z,1.00
2023-05-04T17:31:43.535Z,1.00
2023-05-04T17:34:10.286Z,1.00
2023-05-04T17:36:37.105Z,1.00
2023-05-04T17:39:04.078Z,1.00
2023-05-04T17:41:31.297Z,1.00
2023-05-04T17:43:58.572Z,1.00
2023-05-04T17:46:26.005Z,1.00
2023-05-04T17:48:54.485Z,1.00
2023-05-04T17:51:22.792Z,1.00
2023-05-04T17:53:49.821Z,1.00
2023-05-04T17:56:16.659Z,1.00
2023-05-04T17:58:43.483Z,1.00
2023-05-04T18:01:10.363Z,1.00
2023-05-04T18:03:37.474Z,1.00
2023-05-04T18:06:05.873Z,1.00
2023-05-04T18:08:32.594Z,1.00
2023-05-04T18:10:59.764Z,1.00
2023-05-04T18:13:26.793Z,1.00
2023-05-04T18:15:53.675Z,1.00
2023-05-04T18:18:20.529Z,1.00
2023-05-04T18:20:47.420Z,1.00
2023-05-04T18:23:14.155Z,1.00
2023-05-04T18:25:40.973Z,1.00
2023-05-04T18:28:08.194Z,1.00
2023-05-04T18:30:35.022Z,1.00
2023-05-04T18:33:02.062Z,1.00
2023-05-04T18:35:28.870Z,1.00
2023-05-04T18:37:55.727Z,1.00
2023-05-04T18:40:23.928Z,1.00
2023-05-04T18:42:50.898Z,1.00
2023-05-04T18:45:17.855Z,1.00
2023-05-04T18:47:44.676Z,1.00
2023-05-04T18:50:11.618Z,1.00
2023-05-04T18:52:38.497Z,1.00
2023-05-04T18:55:05.880Z,1.00
2023-05-04T18:57:32.774Z,1.00
2023-05-04T18:59:59.574Z,1.00
2023-05-04T19:02:26.998Z,1.00
2023-05-04T19:04:53.780Z,1.00
2023-05-04T19:07:20.512Z,1.00
2023-05-04T19:09:47.293Z,1.00
2023-05-04T19:12:14.264Z,1.00
2023-05-04T19:14:43.503Z,1.00
2023-05-04T19:17:10.770Z,1.00
2023-05-04T19:19:38.011Z,1.00
2023-05-04T19:22:04.893Z,1.00
2023-05-04T19:24:31.725Z,1.00
2023-05-04T19:27:00.280Z,1.00
2023-05-04T19:29:28.243Z,1.00
2023-05-04T19:31:55.091Z,1.00
2023-05-04T19:34:22.060Z,1.00
2023-05-04T19:36:48.976Z,1.00
2023-05-04T19:39:16.962Z,1.00
2023-05-04T19:41:43.782Z,1.00
2023-05-04T19:44:10.597Z,1.00
2023-05-04T19:46:37.581Z,1.00
2023-05-04T19:49:04.565Z,1.00
2023-05-04T19:51:32.894Z,1.00
2023-05-04T19:53:59.868Z,1.00
2023-05-04T19:56:26.698Z,1.00
2023-05-04T19:58:53.509Z,1.00
2023-05-04T20:01:20.600Z,1.00
2023-05-04T20:03:47.565Z,1.00
2023-05-04T20:06:14.526Z,1.00
2023-05-04T20:08:41.380Z,1.00
2023-05-04T20:11:08.154Z,1.00
2023-05-04T20:13:34.941Z,1.00
2023-05-04T20:16:01.914Z,1.00
2023-05-04T20:18:28.781Z,1.00
2023-05-04T20:20:56.238Z,1.00
2023-05-04T20:23:23.239Z,1.00
2023-05-04T20:25:50.024Z,1.00
2023-05-04T20:28:16.938Z,1.00
2023-05-04T20:30:43.735Z,1.00
2023-05-04T20:33:10.693Z,1.00
2023-05-04T20:35:40.593Z,1.00
2023-05-04T20:38:08.511Z,1.00
2023-05-04T20:40:35.263Z,1.00
2023-05-04T20:43:02.054Z,1.00
2023-05-04T20:45:30.053Z,1.00
2023-05-04T20:47:57.190Z,1.00
2023-05-04T20:50:24.398Z,1.00
2023-05-04T20:52:51.156Z,1.00
2023-05-04T20:55:18.167Z,1.00
2023-05-04T20:57:45.103Z,1.00
2023-05-04T21:00:12.480Z,1.00
2023-05-04T21:02:39.291Z,1.00
2023-05-04T21:05:06.590Z,1.00
2023-05-04T21:07:33.411Z,1.00
2023-05-04T21:10:00.293Z,1.00
2023-05-04T21:12:27.125Z,1.00
2023-05-04T21:14:53.853Z,1.00
2023-05-04T21:17:20.692Z,1.00
2023-05-04T21:19:47.492Z,1.00
2023-05-04T21:22:17.510Z,1.00
2023-05-04T21:24:46.286Z,1.00
2023-05-04T21:27:13.203Z,1.00
2023-05-04T21:29:39.928Z,1.00
2023-05-04T21:32:06.952Z,1.00
2023-05-04T21:34:33.709Z,4.00
2023-05-04T21:37:00.515Z,9.40
2023-05-04T21:39:27.372Z,7.70
2023-05-04T21:41:54.276Z,4.80
2023-05-04T21:44:21.172Z,1.00
2023-05-04T21:46:47.993Z,3.00
2023-05-04T21:49:14.883Z,4.90
2023-05-04T21:51:42.694Z,7.50
2023-05-04T21:54:09.456Z,5.80
2023-05-04T21:56:36.642Z,11.60
2023-05-04T21:59:03.517Z,1.00
2023-05-04T22:01:30.466Z,5.30
2023-05-04T22:03:57.447Z,5.40
2023-05-04T22:06:24.622Z,1.00
2023-05-04T22:08:51.634Z,1.00
2023-05-04T22:11:18.461Z,1.00
2023-05-04T22:13:45.297Z,5.00
2023-05-04T22:16:12.108Z,7.60
2023-05-04T22:18:38.852Z,3.40
2023-05-04T22:21:05.661Z,1.00
2023-05-04T22:23:32.531Z,1.00
2023-05-04T22:25:59.307Z,1.00
2023-05-04T22:28:26.168Z,1.00
2023-05-04T22:30:53.144Z,1.00
2023-05-04T22:33:20.013Z,1.00
2023-05-04T22:35:46.772Z,1.00
2023-05-04T22:38:14.648Z,1.00
2023-05-04T22:40:43.043Z,1.00
2023-05-04T22:43:10.033Z,1.00
2023-05-04T22:45:37.048Z,1.00
2023-05-04T22:48:04.193Z,1.00
2023-05-04T22:50:31.034Z,1.00
2023-05-04T22:52:57.806Z,1.00
2023-05-04T22:55:24.639Z,1.00
2023-05-04T22:57:51.401Z,1.00
2023-05-04T23:00:18.616Z,1.00
2023-05-04T23:02:45.405Z,1.00
2023-05-04T23:05:13.075Z,1.00
2023-05-04T23:07:40.447Z,1.00
2023-05-04T23:10:08.004Z,1.00
2023-05-04T23:12:34.967Z,1.00
2023-05-04T23:15:01.859Z,1.00
2023-05-04T23:17:28.653Z,1.00
2023-05-04T23:19:55.565Z,1.00
2023-05-04T23:22:22.314Z,1.00
2023-05-04T23:24:49.118Z,1.00
2023-05-04T23:27:15.874Z,1.00
2023-05-04T23:29:42.724Z,1.00
2023-05-04T23:32:09.653Z,1.00
2023-05-04T23:34:36.578Z,1.00
2023-05-04T23:37:03.363Z,1.00
2023-05-04T23:39:30.217Z,1.00
2023-05-04T23:41:57.090Z,1.00
2023-05-04T23:44:23.826Z,1.00
2023-05-04T23:46:50.727Z,1.00
2023-05-04T23:49:17.531Z,1.00
2023-05-04T23:51:44.449Z,1.00
2023-05-04T23:54:11.229Z,1.00
2023-05-04T23:56:38.126Z,1.00
2023-05-04T23:59:04.993Z,1.00
